sensor_id;sensor_type;location;lat;lon;timestamp;P1;durP1;ratioP1;P2;durP2;ratioP2
22138;SDS011;25815;52.582;13.408;2023-06-14T00:00:58;4.22;;;1.85;;
22138;SDS011;25815;52.582;13.408;2023-06-14T00:03:23;4.72;;;1.60;;
22138;SDS011;25815;52.582;13.408;2023-06-14T00:05:50;4.00;;;1.80;;
22138;SDS011;25815;52.582;13.408;2023-06-14T00:08:16;3.03;;;1.60;;
22138;SDS011;25815;52.582;13.408;2023-06-14T00:10:43;2.00;;;1.50;;
22138;SDS011;25815;52.582;13.408;2023-06-14T00:13:09;1.90;;;1.50;;
22138;SDS011;25815;52.582;13.408;2023-06-14T00:15:36;4.57;;;1.70;;
22138;SDS011;25815;52.582;13.408;2023-06-14T00:18:02;3.15;;;1.60;;
22138;SDS011;25815;52.582;13.408;2023-06-14T00:20:28;2.92;;;1.70;;
22138;SDS011;25815;52.582;13.408;2023-06-14T00:22:55;3.00;;;1.52;;
22138;SDS011;25815;52.582;13.408;2023-06-14T00:25:22;4.78;;;1.58;;
22138;SDS011;25815;52.582;13.408;2023-06-14T00:27:50;2.33;;;1.50;;
22138;SDS011;25815;52.582;13.408;2023-06-14T00:30:16;2.45;;;1.90;;
22138;SDS011;25815;52.582;13.408;2023-06-14T00:32:42;2.90;;;1.80;;
22138;SDS011;25815;52.582;13.408;2023-06-14T00:35:09;2.88;;;1.92;;
22138;SDS011;25815;52.582;13.408;2023-06-14T00:37:35;2.45;;;1.98;;
22138;SDS011;25815;52.582;13.408;2023-06-14T00:40:01;3.80;;;1.90;;
22138;SDS011;25815;52.582;13.408;2023-06-14T00:42:27;5.38;;;2.00;;
22138;SDS011;25815;52.582;13.408;2023-06-14T00:44:53;4.07;;;2.00;;
22138;SDS011;25815;52.582;13.408;2023-06-14T00:47:20;3.95;;;2.15;;
22138;SDS011;25815;52.582;13.408;2023-06-14T00:49:46;3.42;;;2.15;;
22138;SDS011;25815;52.582;13.408;2023-06-14T00:52:13;3.53;;;2.00;;
22138;SDS011;25815;52.582;13.408;2023-06-14T00:54:39;4.10;;;2.20;;
22138;SDS011;25815;52.582;13.408;2023-06-14T00:57:06;3.97;;;2.17;;
22138;SDS011;25815;52.582;13.408;2023-06-14T00:59:32;3.30;;;2.10;;
22138;SDS011;25815;52.582;13.408;2023-06-14T01:01:58;2.58;;;1.98;;
22138;SDS011;25815;52.582;13.408;2023-06-14T01:04:24;3.22;;;2.28;;
22138;SDS011;25815;52.582;13.408;2023-06-14T01:07:02;5.78;;;2.58;;
22138;SDS011;25815;52.582;13.408;2023-06-14T01:09:42;6.45;;;2.00;;
22138;SDS011;25815;52.582;13.408;2023-06-14T01:12:18;5.15;;;2.72;;
22138;SDS011;25815;52.582;13.408;2023-06-14T01:14:45;4.50;;;2.20;;
22138;SDS011;25815;52.582;13.408;2023-06-14T01:17:12;3.25;;;2.47;;
22138;SDS011;25815;52.582;13.408;2023-06-14T01:19:42;7.00;;;2.60;;
22138;SDS011;25815;52.582;13.408;2023-06-14T01:22:09;4.07;;;2.40;;
22138;SDS011;25815;52.582;13.408;2023-06-14T01:24:35;4.00;;;2.30;;
22138;SDS011;25815;52.582;13.408;2023-06-14T01:27:02;2.92;;;2.03;;
22138;SDS011;25815;52.582;13.408;2023-06-14T01:29:28;4.00;;;2.33;;
22138;SDS011;25815;52.582;13.408;2023-06-14T01:31:58;4.05;;;2.08;;
22138;SDS011;25815;52.582;13.408;2023-06-14T01:34:24;2.60;;;2.00;;
22138;SDS011;25815;52.582;13.408;2023-06-14T01:36:50;5.60;;;2.60;;
22138;SDS011;25815;52.582;13.408;2023-06-14T01:39:17;5.72;;;2.38;;
22138;SDS011;25815;52.582;13.408;2023-06-14T01:41:43;4.03;;;2.28;;
22138;SDS011;25815;52.582;13.408;2023-06-14T01:44:10;4.18;;;2.08;;
22138;SDS011;25815;52.582;13.408;2023-06-14T01:46:37;4.93;;;2.33;;
22138;SDS011;25815;52.582;13.408;2023-06-14T01:49:03;2.95;;;2.63;;
22138;SDS011;25815;52.582;13.408;2023-06-14T01:51:29;3.60;;;2.63;;
22138;SDS011;25815;52.582;13.408;2023-06-14T01:53:55;3.35;;;2.75;;
22138;SDS011;25815;52.582;13.408;2023-06-14T01:56:22;4.13;;;2.58;;
22138;SDS011;25815;52.582;13.408;2023-06-14T01:58:48;4.28;;;2.70;;
22138;SDS011;25815;52.582;13.408;2023-06-14T02:01:14;6.57;;;2.80;;
22138;SDS011;25815;52.582;13.408;2023-06-14T02:03:41;3.95;;;2.60;;
22138;SDS011;25815;52.582;13.408;2023-06-14T02:06:07;4.40;;;2.30;;
22138;SDS011;25815;52.582;13.408;2023-06-14T02:08:33;5.43;;;2.90;;
22138;SDS011;25815;52.582;13.408;2023-06-14T02:10:59;4.95;;;2.70;;
22138;SDS011;25815;52.582;13.408;2023-06-14T02:13:25;3.95;;;2.92;;
22138;SDS011;25815;52.582;13.408;2023-06-14T02:15:51;5.32;;;3.10;;
22138;SDS011;25815;52.582;13.408;2023-06-14T02:18:19;3.38;;;2.70;;
22138;SDS011;25815;52.582;13.408;2023-06-14T02:20:45;3.83;;;2.65;;
22138;SDS011;25815;52.582;13.408;2023-06-14T02:23:11;4.72;;;2.63;;
22138;SDS011;25815;52.582;13.408;2023-06-14T02:25:37;10.43;;;3.08;;
22138;SDS011;25815;52.582;13.408;2023-06-14T02:28:04;5.00;;;3.20;;
22138;SDS011;25815;52.582;13.408;2023-06-14T02:30:30;5.45;;;3.00;;
22138;SDS011;25815;52.582;13.408;2023-06-14T02:32:56;4.53;;;2.83;;
22138;SDS011;25815;52.582;13.408;2023-06-14T02:35:22;4.63;;;3.08;;
22138;SDS011;25815;52.582;13.408;2023-06-14T02:37:51;4.43;;;3.30;;
22138;SDS011;25815;52.582;13.408;2023-06-14T02:40:17;3.97;;;3.25;;
22138;SDS011;25815;52.582;13.408;2023-06-14T02:42:43;7.60;;;3.50;;
22138;SDS011;25815;52.582;13.408;2023-06-14T02:45:09;7.50;;;3.25;;
22138;SDS011;25815;52.582;13.408;2023-06-14T02:47:35;4.15;;;3.60;;
22138;SDS011;25815;52.582;13.408;2023-06-14T02:50:01;4.28;;;3.67;;
22138;SDS011;25815;52.582;13.408;2023-06-14T02:52:27;6.18;;;3.53;;
22138;SDS011;25815;52.582;13.408;2023-06-14T02:54:54;5.15;;;3.08;;
22138;SDS011;25815;52.582;13.408;2023-06-14T02:57:20;4.07;;;3.30;;
22138;SDS011;25815;52.582;13.408;2023-06-14T02:59:46;3.78;;;3.00;;
22138;SDS011;25815;52.582;13.408;2023-06-14T03:02:12;5.40;;;3.10;;
22138;SDS011;25815;52.582;13.408;2023-06-14T03:04:38;8.10;;;3.58;;
22138;SDS011;25815;52.582;13.408;2023-06-14T03:07:04;4.40;;;2.75;;
22138;SDS011;25815;52.582;13.408;2023-06-14T03:09:37;6.68;;;3.42;;
22138;SDS011;25815;52.582;13.408;2023-06-14T03:12:04;5.78;;;3.63;;
22138;SDS011;25815;52.582;13.408;2023-06-14T03:14:31;5.28;;;3.67;;
22138;SDS011;25815;52.582;13.408;2023-06-14T03:16:57;4.28;;;3.42;;
22138;SDS011;25815;52.582;13.408;2023-06-14T03:19:24;6.38;;;3.20;;
22138;SDS011;25815;52.582;13.408;2023-06-14T03:21:51;7.93;;;3.70;;
22138;SDS011;25815;52.582;13.408;2023-06-14T03:24:18;10.25;;;3.38;;
22138;SDS011;25815;52.582;13.408;2023-06-14T03:26:44;5.05;;;3.35;;
22138;SDS011;25815;52.582;13.408;2023-06-14T03:29:11;5.35;;;3.90;;
22138;SDS011;25815;52.582;13.408;2023-06-14T03:31:41;5.47;;;3.20;;
22138;SDS011;25815;52.582;13.408;2023-06-14T03:34:21;5.53;;;3.80;;
22138;SDS011;25815;52.582;13.408;2023-06-14T03:36:47;4.10;;;3.42;;
22138;SDS011;25815;52.582;13.408;2023-06-14T03:39:13;6.35;;;3.80;;
22138;SDS011;25815;52.582;13.408;2023-06-14T03:41:39;6.70;;;3.70;;
22138;SDS011;25815;52.582;13.408;2023-06-14T03:44:05;5.28;;;3.70;;
22138;SDS011;25815;52.582;13.408;2023-06-14T03:46:31;6.30;;;3.55;;
22138;SDS011;25815;52.582;13.408;2023-06-14T03:48:57;6.80;;;3.83;;
22138;SDS011;25815;52.582;13.408;2023-06-14T03:51:23;4.53;;;3.90;;
22138;SDS011;25815;52.582;13.408;2023-06-14T03:53:50;7.90;;;4.40;;
22138;SDS011;25815;52.582;13.408;2023-06-14T03:56:16;6.85;;;3.85;;
22138;SDS011;25815;52.582;13.408;2023-06-14T03:58:42;7.22;;;4.10;;
22138;SDS011;25815;52.582;13.408;2023-06-14T04:01:08;7.05;;;4.05;;
22138;SDS011;25815;52.582;13.408;2023-06-14T04:03:34;6.32;;;3.67;;
22138;SDS011;25815;52.582;13.408;2023-06-14T04:06:00;8.68;;;4.30;;
22138;SDS011;25815;52.582;13.408;2023-06-14T04:08:26;5.88;;;4.18;;
22138;SDS011;25815;52.582;13.408;2023-06-14T04:10:52;6.68;;;3.92;;
22138;SDS011;25815;52.582;13.408;2023-06-14T04:13:18;7.47;;;4.20;;
22138;SDS011;25815;52.582;13.408;2023-06-14T04:15:44;4.53;;;3.63;;
22138;SDS011;25815;52.582;13.408;2023-06-14T04:18:10;6.20;;;3.88;;
22138;SDS011;25815;52.582;13.408;2023-06-14T04:20:36;5.60;;;3.60;;
22138;SDS011;25815;52.582;13.408;2023-06-14T04:23:16;4.90;;;4.03;;
22138;SDS011;25815;52.582;13.408;2023-06-14T04:25:43;7.20;;;3.80;;
22138;SDS011;25815;52.582;13.408;2023-06-14T04:28:14;9.18;;;4.43;;
22138;SDS011;25815;52.582;13.408;2023-06-14T04:30:41;9.57;;;4.47;;
22138;SDS011;25815;52.582;13.408;2023-06-14T04:33:07;10.93;;;4.55;;
22138;SDS011;25815;52.582;13.408;2023-06-14T04:35:34;8.45;;;4.55;;
22138;SDS011;25815;52.582;13.408;2023-06-14T04:38:01;9.85;;;4.40;;
22138;SDS011;25815;52.582;13.408;2023-06-14T04:40:29;10.00;;;4.30;;
22138;SDS011;25815;52.582;13.408;2023-06-14T04:42:55;7.28;;;4.47;;
22138;SDS011;25815;52.582;13.408;2023-06-14T04:45:22;6.30;;;4.40;;
22138;SDS011;25815;52.582;13.408;2023-06-14T04:47:48;9.18;;;4.60;;
22138;SDS011;25815;52.582;13.408;2023-06-14T04:50:15;5.45;;;4.57;;
22138;SDS011;25815;52.582;13.408;2023-06-14T04:52:42;8.13;;;4.47;;
22138;SDS011;25815;52.582;13.408;2023-06-14T04:55:08;6.50;;;4.40;;
22138;SDS011;25815;52.582;13.408;2023-06-14T04:57:34;7.40;;;4.55;;
22138;SDS011;25815;52.582;13.408;2023-06-14T05:00:03;6.50;;;4.45;;
22138;SDS011;25815;52.582;13.408;2023-06-14T05:02:30;5.82;;;4.25;;
22138;SDS011;25815;52.582;13.408;2023-06-14T05:04:59;7.95;;;4.57;;
22138;SDS011;25815;52.582;13.408;2023-06-14T05:07:26;7.53;;;4.43;;
22138;SDS011;25815;52.582;13.408;2023-06-14T05:09:52;7.68;;;4.60;;
22138;SDS011;25815;52.582;13.408;2023-06-14T05:12:18;7.82;;;4.97;;
22138;SDS011;25815;52.582;13.408;2023-06-14T05:14:44;7.93;;;4.55;;
22138;SDS011;25815;52.582;13.408;2023-06-14T05:17:10;6.10;;;3.97;;
22138;SDS011;25815;52.582;13.408;2023-06-14T05:19:36;7.47;;;4.53;;
22138;SDS011;25815;52.582;13.408;2023-06-14T05:22:02;6.03;;;4.53;;
22138;SDS011;25815;52.582;13.408;2023-06-14T05:24:28;10.20;;;4.32;;
22138;SDS011;25815;52.582;13.408;2023-06-14T05:26:57;10.13;;;4.75;;
22138;SDS011;25815;52.582;13.408;2023-06-14T05:29:23;9.50;;;4.97;;
22138;SDS011;25815;52.582;13.408;2023-06-14T05:31:49;6.25;;;4.32;;
22138;SDS011;25815;52.582;13.408;2023-06-14T05:34:15;7.90;;;4.45;;
22138;SDS011;25815;52.582;13.408;2023-06-14T05:36:41;7.25;;;4.70;;
22138;SDS011;25815;52.582;13.408;2023-06-14T05:39:07;10.88;;;4.53;;
22138;SDS011;25815;52.582;13.408;2023-06-14T05:41:33;8.02;;;4.40;;
22138;SDS011;25815;52.582;13.408;2023-06-14T05:43:59;7.78;;;4.30;;
22138;SDS011;25815;52.582;13.408;2023-06-14T05:46:25;9.65;;;4.03;;
22138;SDS011;25815;52.582;13.408;2023-06-14T05:48:51;6.78;;;4.43;;
22138;SDS011;25815;52.582;13.408;2023-06-14T05:51:18;7.30;;;4.38;;
22138;SDS011;25815;52.582;13.408;2023-06-14T05:53:44;6.82;;;3.95;;
22138;SDS011;25815;52.582;13.408;2023-06-14T05:56:11;8.80;;;4.68;;
22138;SDS011;25815;52.582;13.408;2023-06-14T05:58:37;6.10;;;4.47;;
22138;SDS011;25815;52.582;13.408;2023-06-14T06:01:03;10.73;;;4.43;;
22138;SDS011;25815;52.582;13.408;2023-06-14T06:03:29;11.50;;;4.55;;
22138;SDS011;25815;52.582;13.408;2023-06-14T06:05:55;9.27;;;4.32;;
22138;SDS011;25815;52.582;13.408;2023-06-14T06:08:21;9.02;;;4.03;;
22138;SDS011;25815;52.582;13.408;2023-06-14T06:10:47;7.38;;;4.28;;
22138;SDS011;25815;52.582;13.408;2023-06-14T06:13:13;5.35;;;3.75;;
22138;SDS011;25815;52.582;13.408;2023-06-14T06:15:39;9.90;;;4.30;;
22138;SDS011;25815;52.582;13.408;2023-06-14T06:18:05;9.07;;;4.43;;
22138;SDS011;25815;52.582;13.408;2023-06-14T06:20:31;4.82;;;3.88;;
22138;SDS011;25815;52.582;13.408;2023-06-14T06:22:58;8.32;;;4.22;;
22138;SDS011;25815;52.582;13.408;2023-06-14T06:25:24;6.07;;;4.00;;
22138;SDS011;25815;52.582;13.408;2023-06-14T06:27:51;12.35;;;4.13;;
22138;SDS011;25815;52.582;13.408;2023-06-14T06:30:17;10.65;;;3.90;;
22138;SDS011;25815;52.582;13.408;2023-06-14T06:32:43;7.15;;;4.38;;
22138;SDS011;25815;52.582;13.408;2023-06-14T06:35:09;10.65;;;4.28;;
22138;SDS011;25815;52.582;13.408;2023-06-14T06:37:38;8.65;;;4.50;;
22138;SDS011;25815;52.582;13.408;2023-06-14T06:40:05;11.10;;;4.38;;
22138;SDS011;25815;52.582;13.408;2023-06-14T06:42:34;10.43;;;4.78;;
22138;SDS011;25815;52.582;13.408;2023-06-14T06:45:00;6.97;;;4.53;;
22138;SDS011;25815;52.582;13.408;2023-06-14T06:47:26;10.52;;;4.68;;
22138;SDS011;25815;52.582;13.408;2023-06-14T06:49:52;8.57;;;4.85;;
22138;SDS011;25815;52.582;13.408;2023-06-14T06:52:18;10.15;;;4.40;;
22138;SDS011;25815;52.582;13.408;2023-06-14T06:54:44;6.70;;;3.70;;
22138;SDS011;25815;52.582;13.408;2023-06-14T06:57:10;10.07;;;4.30;;
22138;SDS011;25815;52.582;13.408;2023-06-14T06:59:36;7.82;;;4.25;;
22138;SDS011;25815;52.582;13.408;2023-06-14T07:02:02;5.65;;;4.05;;
22138;SDS011;25815;52.582;13.408;2023-06-14T07:04:28;7.32;;;4.28;;
22138;SDS011;25815;52.582;13.408;2023-06-14T07:06:54;8.80;;;3.83;;
22138;SDS011;25815;52.582;13.408;2023-06-14T07:09:20;9.63;;;3.90;;
22138;SDS011;25815;52.582;13.408;2023-06-14T07:11:47;7.10;;;3.60;;
22138;SDS011;25815;52.582;13.408;2023-06-14T07:14:13;8.48;;;3.80;;
22138;SDS011;25815;52.582;13.408;2023-06-14T07:16:39;10.43;;;4.35;;
22138;SDS011;25815;52.582;13.408;2023-06-14T07:19:06;6.05;;;3.95;;
22138;SDS011;25815;52.582;13.408;2023-06-14T07:21:32;6.95;;;3.80;;
22138;SDS011;25815;52.582;13.408;2023-06-14T07:23:58;10.05;;;3.90;;
22138;SDS011;25815;52.582;13.408;2023-06-14T07:26:23;6.78;;;4.07;;
22138;SDS011;25815;52.582;13.408;2023-06-14T07:28:50;7.25;;;3.80;;
22138;SDS011;25815;52.582;13.408;2023-06-14T07:31:16;7.38;;;3.83;;
22138;SDS011;25815;52.582;13.408;2023-06-14T07:33:44;7.70;;;3.88;;
22138;SDS011;25815;52.582;13.408;2023-06-14T07:36:09;9.90;;;4.07;;
22138;SDS011;25815;52.582;13.408;2023-06-14T07:38:35;5.18;;;3.97;;
22138;SDS011;25815;52.582;13.408;2023-06-14T07:41:02;9.13;;;3.70;;
22138;SDS011;25815;52.582;13.408;2023-06-14T07:43:28;14.98;;;4.18;;
22138;SDS011;25815;52.582;13.408;2023-06-14T07:45:54;9.25;;;4.03;;
22138;SDS011;25815;52.582;13.408;2023-06-14T07:48:20;8.20;;;3.95;;
22138;SDS011;25815;52.582;13.408;2023-06-14T07:50:46;7.90;;;4.15;;
22138;SDS011;25815;52.582;13.408;2023-06-14T07:53:12;7.35;;;3.75;;
22138;SDS011;25815;52.582;13.408;2023-06-14T07:55:38;14.32;;;4.03;;
22138;SDS011;25815;52.582;13.408;2023-06-14T07:58:05;6.90;;;4.05;;
22138;SDS011;25815;52.582;13.408;2023-06-14T08:00:31;5.03;;;3.58;;
22138;SDS011;25815;52.582;13.408;2023-06-14T08:02:57;8.68;;;4.03;;
22138;SDS011;25815;52.582;13.408;2023-06-14T08:05:24;8.00;;;3.97;;
22138;SDS011;25815;52.582;13.408;2023-06-14T08:07:54;9.95;;;3.90;;
22138;SDS011;25815;52.582;13.408;2023-06-14T08:10:20;7.40;;;3.75;;
22138;SDS011;25815;52.582;13.408;2023-06-14T08:12:46;8.15;;;3.53;;
22138;SDS011;25815;52.582;13.408;2023-06-14T08:15:14;8.68;;;3.80;;
22138;SDS011;25815;52.582;13.408;2023-06-14T08:17:42;6.32;;;4.05;;
22138;SDS011;25815;52.582;13.408;2023-06-14T08:20:08;6.13;;;3.30;;
22138;SDS011;25815;52.582;13.408;2023-06-14T08:22:35;9.35;;;3.50;;
22138;SDS011;25815;52.582;13.408;2023-06-14T08:25:02;5.55;;;3.80;;
22138;SDS011;25815;52.582;13.408;2023-06-14T08:27:29;7.28;;;3.50;;
22138;SDS011;25815;52.582;13.408;2023-06-14T08:29:55;8.57;;;3.65;;
22138;SDS011;25815;52.582;13.408;2023-06-14T08:32:21;5.60;;;3.17;;
22138;SDS011;25815;52.582;13.408;2023-06-14T08:34:47;8.55;;;3.47;;
22138;SDS011;25815;52.582;13.408;2023-06-14T08:37:13;5.78;;;3.10;;
22138;SDS011;25815;52.582;13.408;2023-06-14T08:39:39;5.05;;;2.92;;
22138;SDS011;25815;52.582;13.408;2023-06-14T08:42:05;4.15;;;3.03;;
22138;SDS011;25815;52.582;13.408;2023-06-14T08:44:31;7.88;;;3.45;;
22138;SDS011;25815;52.582;13.408;2023-06-14T08:46:57;5.30;;;2.90;;
22138;SDS011;25815;52.582;13.408;2023-06-14T08:49:25;4.53;;;2.72;;
22138;SDS011;25815;52.582;13.408;2023-06-14T08:51:53;5.68;;;3.03;;
22138;SDS011;25815;52.582;13.408;2023-06-14T08:54:22;6.18;;;2.60;;
22138;SDS011;25815;52.582;13.408;2023-06-14T08:56:49;5.07;;;3.08;;
22138;SDS011;25815;52.582;13.408;2023-06-14T08:59:16;6.70;;;2.88;;
22138;SDS011;25815;52.582;13.408;2023-06-14T09:01:43;6.72;;;3.40;;
22138;SDS011;25815;52.582;13.408;2023-06-14T09:04:10;7.72;;;3.72;;
22138;SDS011;25815;52.582;13.408;2023-06-14T09:06:36;7.80;;;3.22;;
22138;SDS011;25815;52.582;13.408;2023-06-14T09:09:02;5.68;;;2.88;;
22138;SDS011;25815;52.582;13.408;2023-06-14T09:11:29;6.28;;;3.08;;
22138;SDS011;25815;52.582;13.408;2023-06-14T09:13:55;5.80;;;2.95;;
22138;SDS011;25815;52.582;13.408;2023-06-14T09:16:21;6.70;;;2.92;;
22138;SDS011;25815;52.582;13.408;2023-06-14T09:18:47;4.65;;;3.55;;
22138;SDS011;25815;52.582;13.408;2023-06-14T09:21:14;6.15;;;3.17;;
22138;SDS011;25815;52.582;13.408;2023-06-14T09:23:41;12.02;;;3.40;;
22138;SDS011;25815;52.582;13.408;2023-06-14T09:26:08;4.70;;;2.90;;
22138;SDS011;25815;52.582;13.408;2023-06-14T09:28:34;6.03;;;3.20;;
22138;SDS011;25815;52.582;13.408;2023-06-14T09:31:00;6.82;;;3.30;;
22138;SDS011;25815;52.582;13.408;2023-06-14T09:33:26;7.70;;;2.90;;
22138;SDS011;25815;52.582;13.408;2023-06-14T09:35:53;4.40;;;2.78;;
22138;SDS011;25815;52.582;13.408;2023-06-14T09:38:19;8.90;;;3.05;;
22138;SDS011;25815;52.582;13.408;2023-06-14T09:40:45;6.63;;;3.30;;
22138;SDS011;25815;52.582;13.408;2023-06-14T09:43:11;7.53;;;3.00;;
22138;SDS011;25815;52.582;13.408;2023-06-14T09:45:40;8.68;;;3.10;;
22138;SDS011;25815;52.582;13.408;2023-06-14T09:48:10;6.10;;;3.05;;
22138;SDS011;25815;52.582;13.408;2023-06-14T09:50:42;10.10;;;3.40;;
22138;SDS011;25815;52.582;13.408;2023-06-14T09:53:10;4.97;;;3.50;;
22138;SDS011;25815;52.582;13.408;2023-06-14T09:55:36;10.55;;;3.47;;
22138;SDS011;25815;52.582;13.408;2023-06-14T09:58:06;13.20;;;3.80;;
22138;SDS011;25815;52.582;13.408;2023-06-14T10:00:33;7.10;;;2.90;;
22138;SDS011;25815;52.582;13.408;2023-06-14T10:03:32;11.23;;;3.95;;
22138;SDS011;25815;52.582;13.408;2023-06-14T10:05:51;4.70;;;3.40;;
22138;SDS011;25815;52.582;13.408;2023-06-14T10:08:18;10.73;;;3.10;;
22138;SDS011;25815;52.582;13.408;2023-06-14T10:10:45;7.20;;;3.40;;
22138;SDS011;25815;52.582;13.408;2023-06-14T10:13:11;8.77;;;3.17;;
22138;SDS011;25815;52.582;13.408;2023-06-14T10:15:38;10.48;;;3.90;;
22138;SDS011;25815;52.582;13.408;2023-06-14T10:20:45;11.18;;;3.35;;
22138;SDS011;25815;52.582;13.408;2023-06-14T10:23:17;7.63;;;3.42;;
22138;SDS011;25815;52.582;13.408;2023-06-14T10:25:43;5.55;;;3.10;;
22138;SDS011;25815;52.582;13.408;2023-06-14T10:28:16;8.80;;;3.40;;
22138;SDS011;25815;52.582;13.408;2023-06-14T10:33:28;6.20;;;3.15;;
22138;SDS011;25815;52.582;13.408;2023-06-14T10:38:39;7.28;;;3.30;;
22138;SDS011;25815;52.582;13.408;2023-06-14T10:41:05;8.32;;;3.40;;
22138;SDS011;25815;52.582;13.408;2023-06-14T10:43:32;10.35;;;3.70;;
22138;SDS011;25815;52.582;13.408;2023-06-14T10:46:11;8.68;;;3.50;;
22138;SDS011;25815;52.582;13.408;2023-06-14T10:48:41;4.07;;;2.97;;
22138;SDS011;25815;52.582;13.408;2023-06-14T10:51:15;7.97;;;3.50;;
22138;SDS011;25815;52.582;13.408;2023-06-14T10:53:45;7.20;;;3.20;;
22138;SDS011;25815;52.582;13.408;2023-06-14T10:56:22;6.47;;;2.97;;
22138;SDS011;25815;52.582;13.408;2023-06-14T10:58:49;6.63;;;3.00;;
22138;SDS011;25815;52.582;13.408;2023-06-14T11:01:16;6.80;;;3.33;;
22138;SDS011;25815;52.582;13.408;2023-06-14T11:03:43;7.35;;;3.30;;
22138;SDS011;25815;52.582;13.408;2023-06-14T11:06:16;7.57;;;3.60;;
22138;SDS011;25815;52.582;13.408;2023-06-14T11:11:12;7.53;;;3.45;;
22138;SDS011;25815;52.582;13.408;2023-06-14T11:13:39;12.07;;;3.08;;
22138;SDS011;25815;52.582;13.408;2023-06-14T11:16:12;7.00;;;3.13;;
22138;SDS011;25815;52.582;13.408;2023-06-14T11:18:38;4.28;;;2.80;;
22138;SDS011;25815;52.582;13.408;2023-06-14T11:21:04;6.82;;;4.03;;
22138;SDS011;25815;52.582;13.408;2023-06-14T11:23:30;6.47;;;3.10;;
22138;SDS011;25815;52.582;13.408;2023-06-14T11:25:56;10.00;;;3.00;;
22138;SDS011;25815;52.582;13.408;2023-06-14T11:28:22;6.20;;;2.80;;
22138;SDS011;25815;52.582;13.408;2023-06-14T11:30:49;5.07;;;2.83;;
22138;SDS011;25815;52.582;13.408;2023-06-14T11:33:23;7.55;;;2.72;;
22138;SDS011;25815;52.582;13.408;2023-06-14T11:35:49;5.57;;;2.83;;
22138;SDS011;25815;52.582;13.408;2023-06-14T11:38:16;7.13;;;2.90;;
22138;SDS011;25815;52.582;13.408;2023-06-14T11:40:42;2.92;;;2.40;;
22138;SDS011;25815;52.582;13.408;2023-06-14T11:43:08;4.82;;;2.05;;
22138;SDS011;25815;52.582;13.408;2023-06-14T11:45:34;4.45;;;2.75;;
22138;SDS011;25815;52.582;13.408;2023-06-14T11:48:02;4.60;;;2.70;;
22138;SDS011;25815;52.582;13.408;2023-06-14T11:50:28;4.90;;;2.85;;
22138;SDS011;25815;52.582;13.408;2023-06-14T11:52:57;7.28;;;2.72;;
22138;SDS011;25815;52.582;13.408;2023-06-14T11:55:24;9.98;;;2.67;;
22138;SDS011;25815;52.582;13.408;2023-06-14T11:57:51;7.03;;;3.00;;
22138;SDS011;25815;52.582;13.408;2023-06-14T12:00:17;6.53;;;2.58;;
22138;SDS011;25815;52.582;13.408;2023-06-14T12:02:51;8.82;;;2.78;;
22138;SDS011;25815;52.582;13.408;2023-06-14T12:05:20;5.38;;;2.75;;
22138;SDS011;25815;52.582;13.408;2023-06-14T12:07:46;8.10;;;3.10;;
22138;SDS011;25815;52.582;13.408;2023-06-14T12:10:13;8.57;;;3.00;;
22138;SDS011;25815;52.582;13.408;2023-06-14T12:12:40;11.38;;;4.88;;
22138;SDS011;25815;52.582;13.408;2023-06-14T12:15:07;9.52;;;4.20;;
22138;SDS011;25815;52.582;13.408;2023-06-14T12:17:34;9.13;;;4.70;;
22138;SDS011;25815;52.582;13.408;2023-06-14T12:20:05;6.13;;;3.20;;
22138;SDS011;25815;52.582;13.408;2023-06-14T12:22:53;14.43;;;4.32;;
22138;SDS011;25815;52.582;13.408;2023-06-14T12:27:44;7.93;;;2.70;;
22138;SDS011;25815;52.582;13.408;2023-06-14T12:30:12;6.70;;;3.05;;
22138;SDS011;25815;52.582;13.408;2023-06-14T12:32:38;7.78;;;2.90;;
22138;SDS011;25815;52.582;13.408;2023-06-14T12:35:05;7.13;;;3.55;;
22138;SDS011;25815;52.582;13.408;2023-06-14T12:37:31;7.72;;;3.30;;
22138;SDS011;25815;52.582;13.408;2023-06-14T12:39:57;5.57;;;2.72;;
22138;SDS011;25815;52.582;13.408;2023-06-14T12:42:23;9.35;;;3.35;;
22138;SDS011;25815;52.582;13.408;2023-06-14T12:44:48;9.20;;;3.10;;
22138;SDS011;25815;52.582;13.408;2023-06-14T12:47:14;7.05;;;2.83;;
22138;SDS011;25815;52.582;13.408;2023-06-14T12:49:40;3.97;;;2.60;;
22138;SDS011;25815;52.582;13.408;2023-06-14T12:52:07;6.13;;;2.42;;
22138;SDS011;25815;52.582;13.408;2023-06-14T12:54:33;5.90;;;3.00;;
22138;SDS011;25815;52.582;13.408;2023-06-14T12:56:59;8.63;;;3.58;;
22138;SDS011;25815;52.582;13.408;2023-06-14T12:59:24;6.13;;;2.63;;
22138;SDS011;25815;52.582;13.408;2023-06-14T13:01:51;6.22;;;2.75;;
22138;SDS011;25815;52.582;13.408;2023-06-14T13:04:18;4.60;;;2.60;;
22138;SDS011;25815;52.582;13.408;2023-06-14T13:06:44;5.10;;;2.85;;
22138;SDS011;25815;52.582;13.408;2023-06-14T13:09:10;9.70;;;2.80;;
22138;SDS011;25815;52.582;13.408;2023-06-14T13:11:37;4.93;;;2.72;;
22138;SDS011;25815;52.582;13.408;2023-06-14T13:14:03;4.60;;;2.35;;
22138;SDS011;25815;52.582;13.408;2023-06-14T13:16:30;5.68;;;2.22;;
22138;SDS011;25815;52.582;13.408;2023-06-14T13:18:56;5.75;;;2.45;;
22138;SDS011;25815;52.582;13.408;2023-06-14T13:21:22;6.63;;;2.75;;
22138;SDS011;25815;52.582;13.408;2023-06-14T13:23:48;4.25;;;2.17;;
22138;SDS011;25815;52.582;13.408;2023-06-14T13:26:14;4.88;;;2.53;;
22138;SDS011;25815;52.582;13.408;2023-06-14T13:28:40;5.47;;;2.70;;
22138;SDS011;25815;52.582;13.408;2023-06-14T13:31:06;6.53;;;2.40;;
22138;SDS011;25815;52.582;13.408;2023-06-14T13:33:32;5.03;;;2.35;;
22138;SDS011;25815;52.582;13.408;2023-06-14T13:35:58;5.90;;;2.17;;
22138;SDS011;25815;52.582;13.408;2023-06-14T13:38:24;9.18;;;2.10;;
22138;SDS011;25815;52.582;13.408;2023-06-14T13:40:50;5.63;;;2.33;;
22138;SDS011;25815;52.582;13.408;2023-06-14T13:43:16;6.95;;;2.85;;
22138;SDS011;25815;52.582;13.408;2023-06-14T13:45:42;6.05;;;2.50;;
22138;SDS011;25815;52.582;13.408;2023-06-14T13:48:08;4.78;;;2.22;;
22138;SDS011;25815;52.582;13.408;2023-06-14T13:50:34;6.03;;;2.40;;
22138;SDS011;25815;52.582;13.408;2023-06-14T13:53:00;7.72;;;2.40;;
22138;SDS011;25815;52.582;13.408;2023-06-14T13:55:26;7.30;;;2.40;;
22138;SDS011;25815;52.582;13.408;2023-06-14T13:57:52;7.10;;;2.40;;
22138;SDS011;25815;52.582;13.408;2023-06-14T14:00:18;8.25;;;2.83;;
22138;SDS011;25815;52.582;13.408;2023-06-14T14:02:44;10.45;;;2.70;;
22138;SDS011;25815;52.582;13.408;2023-06-14T14:05:10;6.90;;;2.30;;
22138;SDS011;25815;52.582;13.408;2023-06-14T14:07:36;2.85;;;2.10;;
22138;SDS011;25815;52.582;13.408;2023-06-14T14:10:02;8.80;;;2.60;;
22138;SDS011;25815;52.582;13.408;2023-06-14T14:12:28;5.70;;;2.60;;
22138;SDS011;25815;52.582;13.408;2023-06-14T14:14:54;9.32;;;3.17;;
22138;SDS011;25815;52.582;13.408;2023-06-14T14:17:21;5.25;;;2.78;;
22138;SDS011;25815;52.582;13.408;2023-06-14T14:19:48;11.63;;;3.10;;
22138;SDS011;25815;52.582;13.408;2023-06-14T14:22:14;10.73;;;3.20;;
22138;SDS011;25815;52.582;13.408;2023-06-14T14:24:39;5.90;;;3.03;;
22138;SDS011;25815;52.582;13.408;2023-06-14T14:27:06;5.22;;;2.70;;
22138;SDS011;25815;52.582;13.408;2023-06-14T14:29:33;8.40;;;2.83;;
22138;SDS011;25815;52.582;13.408;2023-06-14T14:31:59;4.07;;;2.55;;
22138;SDS011;25815;52.582;13.408;2023-06-14T14:34:25;8.48;;;2.67;;
22138;SDS011;25815;52.582;13.408;2023-06-14T14:36:51;5.05;;;2.38;;
22138;SDS011;25815;52.582;13.408;2023-06-14T14:39:17;3.78;;;2.47;;
22138;SDS011;25815;52.582;13.408;2023-06-14T14:41:43;4.38;;;2.22;;
22138;SDS011;25815;52.582;13.408;2023-06-14T14:44:08;4.53;;;2.58;;